Standish, Michigan
Current Conditions -  °F | °C
As of 11:15 PM on Thursday 27 Nov 2014 (Local Time) from KIKW Reporting Station
Overcast Overcast  
Wind Chill: -11°   Ceiling: 4300
Heat Index: -6°   Visibility: 10mi
Dew Point: -12°   Wind: 7mph
Humidity: 64%   Direction: 280°W
Pressure: 30.31"   Gusts: NA
Location:  43.98°N, 83.96°W
Report Text: KIKW 280415Z AUTO 28006KT 10SM OVC043 M06/M12 A3031 RMK AO2 T10601118
Loading
Personal Weather Stations






























Interactive Weather Map New forecast layout! Learn more

10-Day Weather Forecast

Advertisements
Track Severe Weather on mobile